createdAt,value
2023-05-03T00:01:47.141Z,4.80
2023-05-03T00:04:17.049Z,4.80
2023-05-03T00:06:45.106Z,4.80
2023-05-03T00:09:12.753Z,4.80
2023-05-03T00:11:39.771Z,4.80
2023-05-03T00:14:06.813Z,4.80
2023-05-03T00:16:33.922Z,4.80
2023-05-03T00:19:00.933Z,4.80
2023-05-03T00:21:28.660Z,4.80
2023-05-03T00:23:55.775Z,4.70
2023-05-03T00:26:23.110Z,4.70
2023-05-03T00:28:50.128Z,4.70
2023-05-03T00:31:17.177Z,4.60
2023-05-03T00:33:44.247Z,4.60
2023-05-03T00:36:15.380Z,4.70
2023-05-03T00:38:43.333Z,4.60
2023-05-03T00:41:11.450Z,4.60
2023-05-03T00:43:38.935Z,4.70
2023-05-03T00:46:16.006Z,4.70
2023-05-03T00:48:45.535Z,4.60
2023-05-03T00:51:15.106Z,4.70
2023-05-03T00:53:43.188Z,4.70
2023-05-03T00:56:11.574Z,4.70
2023-05-03T00:58:40.585Z,4.70
2023-05-03T01:01:08.194Z,4.60
2023-05-03T01:03:37.941Z,4.60
2023-05-03T01:06:35.476Z,4.60
2023-05-03T01:09:27.648Z,4.50
2023-05-03T01:12:12.874Z,4.50
2023-05-03T01:14:45.333Z,4.40
2023-05-03T01:17:14.304Z,4.40
2023-05-03T01:19:56.548Z,4.40
2023-05-03T01:22:47.756Z,4.30
2023-05-03T01:25:16.003Z,4.20
2023-05-03T01:27:43.610Z,4.20
2023-05-03T01:30:12.723Z,4.10
2023-05-03T01:32:50.237Z,4.10
2023-05-03T01:35:44.318Z,4.00
2023-05-03T01:38:12.666Z,4.00
2023-05-03T01:40:45.761Z,3.90
2023-05-03T01:43:16.086Z,3.90
2023-05-03T01:45:43.661Z,3.80
2023-05-03T01:48:15.793Z,3.70
2023-05-03T01:50:42.891Z,3.70
2023-05-03T01:53:09.948Z,3.70
2023-05-03T01:55:37.003Z,3.60
2023-05-03T01:58:04.081Z,3.50
2023-05-03T02:00:31.119Z,3.60
2023-05-03T02:02:58.555Z,3.60
2023-05-03T02:05:26.246Z,3.50
2023-05-03T02:07:53.304Z,3.50
2023-05-03T02:10:20.339Z,3.50
2023-05-03T02:12:47.390Z,3.50
2023-05-03T02:15:14.501Z,3.60
2023-05-03T02:17:43.357Z,3.60
2023-05-03T02:20:10.749Z,3.50
2023-05-03T02:22:37.798Z,3.50
2023-05-03T02:25:05.498Z,3.50
2023-05-03T02:27:32.567Z,3.50
2023-05-03T02:29:59.708Z,3.40
2023-05-03T02:32:26.951Z,3.40
2023-05-03T02:34:54.740Z,3.40
2023-05-03T02:37:21.814Z,3.30
2023-05-03T02:39:48.863Z,3.30
2023-05-03T02:42:16.320Z,3.30
2023-05-03T02:44:43.380Z,3.30
2023-05-03T02:47:11.141Z,3.30
2023-05-03T02:49:38.220Z,3.30
2023-05-03T02:52:05.237Z,3.30
2023-05-03T02:54:32.280Z,3.30
2023-05-03T02:56:59.358Z,3.20
2023-05-03T02:59:26.550Z,3.20
2023-05-03T03:01:53.820Z,3.20
2023-05-03T03:04:21.051Z,3.30
2023-05-03T03:06:48.154Z,3.30
2023-05-03T03:09:15.280Z,3.30
2023-05-03T03:11:42.356Z,3.20
2023-05-03T03:14:09.509Z,3.20
2023-05-03T03:16:36.640Z,3.20
2023-05-03T03:19:03.637Z,3.10
2023-05-03T03:21:32.783Z,3.10
2023-05-03T03:23:59.813Z,3.10
2023-05-03T03:26:27.184Z,3.10
2023-05-03T03:28:54.201Z,3.10
2023-05-03T03:31:23.279Z,3.10
2023-05-03T03:33:50.364Z,3.10
2023-05-03T03:36:17.551Z,3.10
2023-05-03T03:38:44.685Z,3.10
2023-05-03T03:41:12.094Z,3.10
2023-05-03T03:43:39.175Z,3.10
2023-05-03T03:46:06.524Z,3.10
2023-05-03T03:48:33.631Z,3.00
2023-05-03T03:51:00.718Z,3.00
2023-05-03T03:53:27.783Z,3.00
2023-05-03T03:55:54.864Z,3.00
2023-05-03T03:58:21.948Z,3.00
2023-05-03T04:00:49.301Z,3.00
2023-05-03T04:03:17.087Z,3.10
2023-05-03T04:05:44.196Z,3.10
2023-05-03T04:08:12.270Z,3.10
2023-05-03T04:10:39.274Z,3.10
2023-05-03T04:13:06.521Z,3.00
2023-05-03T04:15:33.513Z,2.90
2023-05-03T04:18:00.713Z,2.90
2023-05-03T04:20:28.301Z,2.90
2023-05-03T04:22:55.517Z,3.10
2023-05-03T04:25:22.506Z,3.30
2023-05-03T04:27:49.720Z,3.60
2023-05-03T04:30:17.768Z,3.90
2023-05-03T04:32:44.892Z,4.20
2023-05-03T04:35:12.697Z,4.40
2023-05-03T04:37:42.211Z,4.60
2023-05-03T04:40:12.843Z,4.70
2023-05-03T04:42:39.908Z,4.80
2023-05-03T04:45:09.867Z,5.00
2023-05-03T04:47:37.283Z,5.10
2023-05-03T04:50:04.947Z,5.20
2023-05-03T04:52:32.246Z,5.30
2023-05-03T04:54:59.337Z,5.30
2023-05-03T04:57:26.509Z,5.60
2023-05-03T04:59:56.256Z,5.90
2023-05-03T05:02:23.395Z,6.20
2023-05-03T05:04:50.586Z,6.60
2023-05-03T05:07:18.210Z,7.00
2023-05-03T05:09:45.315Z,7.40
2023-05-03T05:12:13.197Z,7.80
2023-05-03T05:14:40.195Z,8.10
2023-05-03T05:17:07.522Z,8.40
2023-05-03T05:19:34.558Z,8.70
2023-05-03T05:22:01.851Z,8.80
2023-05-03T05:24:28.877Z,9.20
2023-05-03T05:26:56.314Z,9.50
2023-05-03T05:29:23.371Z,9.50
2023-05-03T05:31:50.463Z,9.50
2023-05-03T05:34:17.543Z,9.40
2023-05-03T05:36:44.859Z,9.40
2023-05-03T05:39:12.143Z,9.30
2023-05-03T05:41:39.604Z,9.30
2023-05-03T05:44:07.381Z,9.40
2023-05-03T05:46:34.417Z,9.40
2023-05-03T05:49:01.648Z,9.50
2023-05-03T05:51:30.642Z,9.60
2023-05-03T05:53:58.770Z,9.90
2023-05-03T05:56:26.706Z,9.90
2023-05-03T05:58:53.763Z,10.00
2023-05-03T06:01:21.232Z,10.30
2023-05-03T06:03:48.315Z,10.90
2023-05-03T06:06:15.359Z,10.80
2023-05-03T06:08:42.436Z,10.70
2023-05-03T06:11:09.946Z,10.80
2023-05-03T06:13:38.864Z,10.90
2023-05-03T06:16:06.443Z,11.30
2023-05-03T06:18:33.581Z,11.80
2023-05-03T06:21:00.658Z,12.00
2023-05-03T06:23:28.303Z,11.40
2023-05-03T06:25:55.449Z,11.30
2023-05-03T06:28:22.490Z,11.30
2023-05-03T06:30:52.683Z,12.00
2023-05-03T06:33:19.908Z,12.20
2023-05-03T06:35:49.604Z,12.30
2023-05-03T06:38:16.712Z,12.30
2023-05-03T06:40:45.762Z,12.10
2023-05-03T06:43:13.000Z,12.00
2023-05-03T06:45:42.121Z,11.80
2023-05-03T06:48:10.078Z,11.40
2023-05-03T06:50:37.338Z,11.10
2023-05-03T06:53:04.370Z,11.30
2023-05-03T06:55:33.174Z,11.40
2023-05-03T06:58:00.472Z,11.40
2023-05-03T07:00:27.865Z,11.40
2023-05-03T07:02:55.008Z,11.40
2023-05-03T07:05:22.668Z,11.40
2023-05-03T07:07:49.764Z,11.60
2023-05-03T07:10:16.809Z,11.60
2023-05-03T07:12:43.865Z,11.60
2023-05-03T07:15:11.167Z,11.60
2023-05-03T07:17:38.271Z,11.90
2023-05-03T07:20:06.103Z,11.90
2023-05-03T07:22:33.272Z,11.60
2023-05-03T07:25:00.352Z,11.80
2023-05-03T07:27:27.511Z,11.40
2023-05-03T07:29:54.917Z,11.60
2023-05-03T07:32:22.688Z,11.60
2023-05-03T07:34:50.026Z,11.70
2023-05-03T07:37:17.633Z,11.80
2023-05-03T07:39:45.712Z,11.20
2023-05-03T07:42:12.829Z,11.10
2023-05-03T07:44:39.996Z,11.40
2023-05-03T07:47:07.030Z,11.60
2023-05-03T07:49:35.964Z,11.40
2023-05-03T07:52:03.297Z,10.80
2023-05-03T07:54:30.533Z,11.00
2023-05-03T07:56:57.697Z,11.00
2023-05-03T07:59:24.773Z,11.30
2023-05-03T08:01:51.825Z,11.60
2023-05-03T08:04:19.019Z,12.00
2023-05-03T08:06:46.469Z,11.60
2023-05-03T08:09:14.168Z,11.30
2023-05-03T08:11:43.954Z,11.70
2023-05-03T08:14:11.607Z,11.50
2023-05-03T08:16:39.037Z,11.30
2023-05-03T08:19:06.335Z,11.30
2023-05-03T08:21:33.686Z,11.10
2023-05-03T08:24:01.081Z,11.20
2023-05-03T08:26:29.920Z,11.00
2023-05-03T08:28:57.025Z,11.10
2023-05-03T08:31:24.233Z,11.20
2023-05-03T08:33:51.930Z,11.00
2023-05-03T08:36:19.066Z,11.10
2023-05-03T08:38:46.183Z,10.90
2023-05-03T08:41:32.313Z,10.60
2023-05-03T08:44:00.447Z,10.60
2023-05-03T08:46:28.866Z,10.60
2023-05-03T08:48:56.254Z,10.70
2023-05-03T08:51:24.633Z,10.60
2023-05-03T08:53:51.976Z,10.80
2023-05-03T08:56:30.431Z,10.90
2023-05-03T08:58:58.303Z,10.90
2023-05-03T09:01:25.951Z,10.80
2023-05-03T09:03:53.189Z,10.80
2023-05-03T09:06:22.717Z,11.00
2023-05-03T09:08:50.372Z,11.00
2023-05-03T09:11:30.386Z,11.10
2023-05-03T09:14:15.184Z,11.20
2023-05-03T09:16:47.273Z,11.20
2023-05-03T09:19:15.926Z,11.10
2023-05-03T09:21:47.302Z,11.10
2023-05-03T09:24:15.689Z,11.20
2023-05-03T09:26:43.250Z,11.20
2023-05-03T09:29:10.423Z,11.30
2023-05-03T09:31:39.137Z,11.80
2023-05-03T09:34:23.233Z,11.90
2023-05-03T09:36:50.503Z,11.90
2023-05-03T09:39:18.778Z,11.90
2023-05-03T09:41:46.832Z,11.70
2023-05-03T09:44:14.025Z,11.70
2023-05-03T09:47:01.132Z,11.80
2023-05-03T09:49:28.201Z,11.80
2023-05-03T09:51:56.304Z,12.00
2023-05-03T09:54:25.683Z,12.20
2023-05-03T09:56:55.491Z,12.20
2023-05-03T09:59:22.544Z,12.20
2023-05-03T10:01:52.851Z,12.20
2023-05-03T10:04:22.268Z,12.20
2023-05-03T10:06:50.664Z,12.20
2023-05-03T10:09:40.370Z,12.10
2023-05-03T10:12:13.503Z,12.30
2023-05-03T10:14:46.392Z,12.40
2023-05-03T10:17:16.204Z,12.40
2023-05-03T10:20:12.021Z,12.40
2023-05-03T10:23:04.667Z,12.50
2023-05-03T10:25:32.589Z,12.80
2023-05-03T10:28:07.470Z,12.90
2023-05-03T10:30:38.939Z,13.20
2023-05-03T10:33:14.696Z,13.00
2023-05-03T10:35:43.952Z,13.00
2023-05-03T10:38:25.357Z,13.10
2023-05-03T10:40:53.143Z,13.30
2023-05-03T10:43:34.620Z,13.60
2023-05-03T10:46:01.685Z,13.80
2023-05-03T10:48:30.186Z,13.90
2023-05-03T10:50:58.470Z,14.20
2023-05-03T10:53:36.299Z,14.60
2023-05-03T10:56:08.376Z,14.40
2023-05-03T10:58:46.556Z,14.30
2023-05-03T11:01:16.075Z,14.80
2023-05-03T11:04:12.021Z,14.80
2023-05-03T11:06:46.242Z,14.60
2023-05-03T11:09:14.961Z,14.60
2023-05-03T11:11:42.695Z,14.50
2023-05-03T11:14:11.705Z,14.80
2023-05-03T11:16:47.989Z,15.00
2023-05-03T11:19:15.896Z,15.20
2023-05-03T11:21:43.630Z,15.30
2023-05-03T11:24:11.186Z,15.30
2023-05-03T11:26:39.247Z,15.20
2023-05-03T11:29:06.416Z,15.60
2023-05-03T11:31:35.881Z,16.10
2023-05-03T11:34:03.098Z,16.00
2023-05-03T11:36:31.221Z,16.20
2023-05-03T11:38:58.267Z,16.90
2023-05-03T11:41:25.519Z,17.30
2023-05-03T11:44:00.673Z,17.50
2023-05-03T11:46:35.192Z,17.20
2023-05-03T11:49:03.249Z,17.60
2023-05-03T11:51:31.534Z,17.90
2023-05-03T11:54:12.954Z,17.80
2023-05-03T11:56:47.828Z,17.90
2023-05-03T11:59:14.898Z,17.80
2023-05-03T12:01:43.251Z,18.30
2023-05-03T12:04:12.427Z,18.80
2023-05-03T12:06:40.628Z,18.30
2023-05-03T12:09:15.552Z,18.10
2023-05-03T12:11:44.760Z,18.10
2023-05-03T12:14:12.725Z,18.70
2023-05-03T12:16:50.817Z,19.10
2023-05-03T12:19:32.045Z,19.50
2023-05-03T12:24:33.169Z,19.70
2023-05-03T12:27:03.592Z,19.50
2023-05-03T12:29:35.389Z,18.90
2023-05-03T12:32:04.329Z,18.80
2023-05-03T12:34:35.492Z,18.80
2023-05-03T12:37:05.356Z,18.60
2023-05-03T12:39:34.097Z,18.40
2023-05-03T12:44:35.097Z,18.90
2023-05-03T12:47:03.523Z,19.40
2023-05-03T12:49:31.475Z,20.20
2023-05-03T12:54:33.584Z,20.60
2023-05-03T12:57:08.529Z,20.10
2023-05-03T12:59:41.894Z,20.70
2023-05-03T13:04:57.655Z,20.70
2023-05-03T13:07:30.159Z,20.60
2023-05-03T13:12:31.077Z,19.90
2023-05-03T13:14:58.304Z,20.40
2023-05-03T13:17:26.337Z,20.10
2023-05-03T13:19:53.587Z,19.70
2023-05-03T13:22:20.724Z,19.50
2023-05-03T13:24:48.192Z,19.70
2023-05-03T13:27:16.505Z,20.40
2023-05-03T13:29:44.442Z,21.30
2023-05-03T13:32:13.033Z,21.30
2023-05-03T13:34:40.091Z,21.00
2023-05-03T13:37:07.470Z,20.90
2023-05-03T13:39:34.528Z,20.60
2023-05-03T13:42:02.605Z,20.40
2023-05-03T13:44:29.753Z,20.30
2023-05-03T13:46:57.736Z,20.20
2023-05-03T13:49:25.628Z,20.30
2023-05-03T13:51:52.853Z,20.30
2023-05-03T13:54:19.932Z,20.40
2023-05-03T13:56:48.470Z,20.20
2023-05-03T13:59:16.906Z,20.00
2023-05-03T14:01:44.139Z,20.50
2023-05-03T14:04:11.469Z,20.40
2023-05-03T14:06:41.439Z,20.70
2023-05-03T14:09:09.466Z,21.30
2023-05-03T14:11:36.578Z,21.20
2023-05-03T14:14:03.864Z,21.10
2023-05-03T14:16:40.662Z,20.60
2023-05-03T14:19:12.443Z,20.60
2023-05-03T14:21:41.731Z,20.40
2023-05-03T14:24:09.553Z,20.20
2023-05-03T14:26:37.712Z,20.30
2023-05-03T14:29:06.049Z,21.20
2023-05-03T14:31:34.204Z,21.50
2023-05-03T14:34:01.323Z,21.30
2023-05-03T14:36:36.384Z,21.40
2023-05-03T14:39:04.471Z,21.70
2023-05-03T14:41:33.497Z,21.60
2023-05-03T14:44:01.117Z,21.60
2023-05-03T14:46:28.329Z,21.40
2023-05-03T14:48:55.780Z,21.20
2023-05-03T14:51:23.408Z,21.30
2023-05-03T14:53:50.855Z,21.40
2023-05-03T14:56:18.013Z,21.10
2023-05-03T14:58:45.040Z,21.00
2023-05-03T15:01:21.746Z,21.10
2023-05-03T15:03:49.150Z,21.20
2023-05-03T15:06:23.789Z,21.00
2023-05-03T15:08:52.455Z,21.50
2023-05-03T15:11:19.493Z,22.20
2023-05-03T15:13:47.526Z,22.60
2023-05-03T15:16:14.787Z,22.50
2023-05-03T15:18:44.013Z,22.80
2023-05-03T15:21:12.897Z,23.20
2023-05-03T15:23:39.962Z,23.60
2023-05-03T15:26:07.305Z,23.00
2023-05-03T15:28:34.442Z,22.80
2023-05-03T15:31:01.987Z,21.90
2023-05-03T15:33:29.157Z,21.20
2023-05-03T15:35:56.597Z,20.80
2023-05-03T15:38:23.767Z,20.90
2023-05-03T15:40:50.782Z,21.50
2023-05-03T15:43:18.072Z,22.20
2023-05-03T15:45:45.126Z,21.90
2023-05-03T15:48:12.212Z,21.50
2023-05-03T15:50:39.348Z,21.20
2023-05-03T15:53:06.557Z,21.20
2023-05-03T15:55:33.777Z,21.00
2023-05-03T15:58:00.793Z,20.90
2023-05-03T16:00:27.940Z,20.50
2023-05-03T16:02:55.262Z,20.10
2023-05-03T16:05:23.109Z,19.80
2023-05-03T16:07:51.043Z,19.90
2023-05-03T16:10:18.140Z,19.70
2023-05-03T16:12:45.327Z,20.00
2023-05-03T16:15:12.781Z,20.30
2023-05-03T16:17:39.899Z,20.30
2023-05-03T16:20:10.866Z,20.80
2023-05-03T16:22:38.370Z,20.50
2023-05-03T16:25:11.011Z,20.20
2023-05-03T16:27:40.286Z,19.90
2023-05-03T16:30:08.855Z,19.50
2023-05-03T16:32:37.064Z,19.10
2023-05-03T16:35:04.642Z,19.00
2023-05-03T16:37:37.282Z,19.10
2023-05-03T16:40:10.294Z,19.40
2023-05-03T16:42:41.635Z,19.50
2023-05-03T16:45:10.681Z,19.40
2023-05-03T16:47:38.640Z,19.30
2023-05-03T16:50:09.979Z,19.20
2023-05-03T16:52:42.676Z,19.20
2023-05-03T16:55:13.393Z,19.00
2023-05-03T16:57:40.720Z,19.00
2023-05-03T17:00:09.578Z,18.80
2023-05-03T17:02:38.516Z,18.90
2023-05-03T17:05:06.828Z,18.80
2023-05-03T17:07:34.447Z,18.60
2023-05-03T17:10:03.111Z,18.70
2023-05-03T17:12:30.509Z,18.70
2023-05-03T17:14:57.601Z,18.60
2023-05-03T17:17:24.665Z,18.30
2023-05-03T17:19:51.975Z,17.90
2023-05-03T17:22:18.995Z,17.50
2023-05-03T17:24:46.231Z,17.40
2023-05-03T17:27:13.253Z,17.20
2023-05-03T17:29:40.518Z,17.10
2023-05-03T17:32:07.635Z,16.90
2023-05-03T17:34:34.709Z,16.70
2023-05-03T17:37:01.759Z,16.70
2023-05-03T17:39:28.826Z,16.60
2023-05-03T17:41:56.024Z,16.50
2023-05-03T17:44:23.099Z,16.40
2023-05-03T17:46:50.485Z,16.30
2023-05-03T17:49:17.515Z,16.10
2023-05-03T17:51:44.610Z,16.20
2023-05-03T17:54:11.734Z,16.10
2023-05-03T17:56:38.834Z,16.20
2023-05-03T17:59:05.851Z,16.10
2023-05-03T18:01:32.989Z,16.00
2023-05-03T18:04:00.251Z,15.90
2023-05-03T18:06:28.204Z,15.70
2023-05-03T18:08:55.513Z,15.70
2023-05-03T18:11:23.075Z,15.60
2023-05-03T18:13:50.141Z,15.60
2023-05-03T18:16:17.285Z,15.40
2023-05-03T18:18:45.689Z,15.30
2023-05-03T18:21:12.785Z,15.20
2023-05-03T18:23:39.863Z,15.10
2023-05-03T18:26:08.450Z,14.90
2023-05-03T18:28:35.612Z,14.80
2023-05-03T18:31:03.984Z,14.60
2023-05-03T18:33:33.917Z,14.50
2023-05-03T18:36:00.967Z,14.40
2023-05-03T18:38:28.044Z,14.30
2023-05-03T18:40:56.090Z,14.20
2023-05-03T18:43:24.052Z,14.10
2023-05-03T18:45:52.487Z,14.00
2023-05-03T18:48:19.575Z,13.90
2023-05-03T18:50:46.677Z,13.80
2023-05-03T18:53:16.075Z,13.80
2023-05-03T18:55:43.413Z,13.60
2023-05-03T18:58:10.455Z,13.50
2023-05-03T19:00:37.521Z,13.40
2023-05-03T19:03:06.086Z,13.40
2023-05-03T19:05:36.406Z,13.20
2023-05-03T19:08:03.491Z,13.20
2023-05-03T19:10:30.629Z,13.10
2023-05-03T19:12:59.166Z,13.10
2023-05-03T19:15:26.234Z,13.00
2023-05-03T19:17:53.368Z,13.00
2023-05-03T19:20:20.669Z,12.90
2023-05-03T19:22:47.874Z,12.80
2023-05-03T19:25:15.122Z,12.80
2023-05-03T19:27:42.207Z,12.70
2023-05-03T19:30:09.879Z,12.60
2023-05-03T19:32:40.818Z,12.60
2023-05-03T19:35:14.242Z,12.50
2023-05-03T19:37:43.153Z,12.40
2023-05-03T19:40:10.893Z,12.20
2023-05-03T19:42:38.198Z,12.10
2023-05-03T19:45:06.271Z,12.10
2023-05-03T19:47:33.821Z,11.90
2023-05-03T19:50:00.979Z,11.90
2023-05-03T19:52:28.018Z,11.80
2023-05-03T19:54:56.497Z,11.70
2023-05-03T19:57:23.648Z,11.60
2023-05-03T19:59:51.026Z,11.60
2023-05-03T20:02:18.734Z,11.60
2023-05-03T20:04:45.799Z,11.60
2023-05-03T20:07:12.870Z,11.50
2023-05-03T20:09:39.973Z,11.50
2023-05-03T20:12:07.139Z,11.40
2023-05-03T20:14:34.177Z,11.40
2023-05-03T20:17:01.655Z,11.40
2023-05-03T20:19:29.794Z,11.40
2023-05-03T20:21:56.824Z,11.50
2023-05-03T20:24:24.123Z,11.50
2023-05-03T20:26:52.265Z,11.40
2023-05-03T20:29:19.423Z,11.40
2023-05-03T20:31:48.424Z,11.30
2023-05-03T20:34:15.864Z,11.20
2023-05-03T20:36:42.912Z,11.10
2023-05-03T20:39:10.549Z,11.10
2023-05-03T20:41:38.038Z,11.10
2023-05-03T20:44:05.264Z,11.00
2023-05-03T20:46:32.684Z,11.00
2023-05-03T20:48:59.682Z,10.90
2023-05-03T20:51:26.984Z,10.90
2023-05-03T20:53:54.130Z,10.80
2023-05-03T20:56:21.267Z,10.90
2023-05-03T20:58:48.308Z,10.80
2023-05-03T21:01:15.460Z,10.80
2023-05-03T21:03:42.628Z,10.80
2023-05-03T21:06:09.775Z,10.70
2023-05-03T21:08:36.904Z,10.50
2023-05-03T21:11:04.403Z,10.50
2023-05-03T21:13:31.586Z,10.40
2023-05-03T21:15:58.704Z,10.30
2023-05-03T21:18:25.750Z,10.20
2023-05-03T21:20:54.080Z,10.10
2023-05-03T21:23:21.118Z,10.00
2023-05-03T21:25:48.185Z,10.00
2023-05-03T21:28:15.761Z,10.00
2023-05-03T21:30:43.977Z,10.00
2023-05-03T21:33:11.094Z,10.00
2023-05-03T21:35:38.106Z,9.90
2023-05-03T21:38:05.374Z,10.00
2023-05-03T21:40:33.243Z,10.00
2023-05-03T21:43:00.305Z,10.00
2023-05-03T21:45:27.310Z,9.90
2023-05-03T21:47:54.398Z,9.90
2023-05-03T21:50:23.681Z,9.90
2023-05-03T21:52:50.770Z,9.80
2023-05-03T21:55:17.882Z,9.80
2023-05-03T21:57:45.202Z,9.60
2023-05-03T22:00:19.511Z,9.50
2023-05-03T22:02:48.257Z,9.60
2023-05-03T22:05:15.510Z,9.50
2023-05-03T22:07:42.595Z,9.40
2023-05-03T22:10:09.781Z,9.50
2023-05-03T22:12:37.122Z,9.50
2023-05-03T22:15:04.393Z,9.50
2023-05-03T22:17:31.595Z,9.60
2023-05-03T22:19:58.651Z,9.60
2023-05-03T22:22:25.668Z,9.50
2023-05-03T22:24:52.744Z,9.40
2023-05-03T22:27:19.792Z,9.50
2023-05-03T22:29:48.901Z,9.60
2023-05-03T22:32:16.118Z,9.50
2023-05-03T22:34:44.631Z,9.40
2023-05-03T22:37:12.198Z,9.30
2023-05-03T22:39:39.748Z,9.30
2023-05-03T22:42:06.754Z,9.40
2023-05-03T22:44:33.930Z,9.30
2023-05-03T22:47:01.047Z,9.30
2023-05-03T22:49:28.133Z,9.20
2023-05-03T22:51:55.109Z,9.10
2023-05-03T22:54:24.132Z,9.00
2023-05-03T22:56:51.424Z,9.10
2023-05-03T22:59:18.434Z,9.10
2023-05-03T23:01:49.565Z,9.20
2023-05-03T23:04:16.946Z,9.10
2023-05-03T23:06:44.352Z,9.20
2023-05-03T23:09:11.949Z,9.10
2023-05-03T23:11:39.125Z,9.00
2023-05-03T23:14:06.370Z,9.20
2023-05-03T23:16:33.524Z,9.20
2023-05-03T23:19:00.645Z,9.10
2023-05-03T23:21:27.718Z,9.10
2023-05-03T23:23:54.852Z,9.10
2023-05-03T23:26:21.908Z,9.00
2023-05-03T23:28:49.444Z,9.20
2023-05-03T23:31:16.962Z,9.10
2023-05-03T23:33:44.485Z,9.00
2023-05-03T23:36:11.573Z,8.90
2023-05-03T23:38:38.735Z,8.90
2023-05-03T23:41:05.851Z,8.90
2023-05-03T23:43:33.022Z,8.80
2023-05-03T23:46:00.162Z,8.80
2023-05-03T23:48:27.177Z,8.90
2023-05-03T23:50:54.242Z,8.80
2023-05-03T23:53:21.301Z,8.80
2023-05-03T23:55:48.370Z,8.90
2023-05-03T23:58:15.437Z,8.80
